sensor_id;sensor_type;location;lat;lon;timestamp;temperature;humidity
67868;SHT31;54672;46.096;14.470;2023-12-20T00:01:32;-1.96;99.99
67868;SHT31;54672;46.096;14.470;2023-12-20T00:03:57;-1.96;99.99
67868;SHT31;54672;46.096;14.470;2023-12-20T00:06:23;-2.03;99.99
67868;SHT31;54672;46.096;14.470;2023-12-20T00:08:49;-2.03;99.99
67868;SHT31;54672;46.096;14.470;2023-12-20T00:11:14;-1.99;99.99
67868;SHT31;54672;46.096;14.470;2023-12-20T00:13:40;-2.05;99.99
67868;SHT31;54672;46.096;14.470;2023-12-20T00:16:05;-1.89;99.99
67868;SHT31;54672;46.096;14.470;2023-12-20T00:18:31;-1.95;99.99
67868;SHT31;54672;46.096;14.470;2023-12-20T00:20:56;-2.03;99.99
67868;SHT31;54672;46.096;14.470;2023-12-20T00:23:21;-1.95;99.99
67868;SHT31;54672;46.096;14.470;2023-12-20T00:25:48;-1.93;99.99
67868;SHT31;54672;46.096;14.470;2023-12-20T00:28:14;-2.01;99.99
67868;SHT31;54672;46.096;14.470;2023-12-20T00:30:39;-1.98;99.99
67868;SHT31;54672;46.096;14.470;2023-12-20T00:33:04;-1.98;99.99
67868;SHT31;54672;46.096;14.470;2023-12-20T00:35:30;-2.06;99.99
67868;SHT31;54672;46.096;14.470;2023-12-20T00:37:55;-1.96;99.99
67868;SHT31;54672;46.096;14.470;2023-12-20T00:40:21;-2.05;99.99
67868;SHT31;54672;46.096;14.470;2023-12-20T00:42:47;-2.03;99.99
67868;SHT31;54672;46.096;14.470;2023-12-20T00:45:13;-1.96;99.99
67868;SHT31;54672;46.096;14.470;2023-12-20T00:47:39;-1.92;99.99
67868;SHT31;54672;46.096;14.470;2023-12-20T00:50:06;-1.89;99.99
67868;SHT31;54672;46.096;14.470;2023-12-20T00:52:31;-1.85;99.99
67868;SHT31;54672;46.096;14.470;2023-12-20T00:54:58;-1.88;99.99
67868;SHT31;54672;46.096;14.470;2023-12-20T00:57:23;-2.18;99.99
67868;SHT31;54672;46.096;14.470;2023-12-20T00:59:49;-2.19;99.99
67868;SHT31;54672;46.096;14.470;2023-12-20T01:02:14;-2.10;99.99
67868;SHT31;54672;46.096;14.470;2023-12-20T01:04:39;-2.05;99.99
67868;SHT31;54672;46.096;14.470;2023-12-20T01:07:05;-2.25;99.99
67868;SHT31;54672;46.096;14.470;2023-12-20T01:09:30;-2.34;99.99
67868;SHT31;54672;46.096;14.470;2023-12-20T01:11:56;-2.39;99.99
67868;SHT31;54672;46.096;14.470;2023-12-20T01:14:21;-2.46;99.99
67868;SHT31;54672;46.096;14.470;2023-12-20T01:16:47;-2.50;99.99
67868;SHT31;54672;46.096;14.470;2023-12-20T01:19:13;-2.44;99.99
67868;SHT31;54672;46.096;14.470;2023-12-20T01:21:39;-2.46;99.99
67868;SHT31;54672;46.096;14.470;2023-12-20T01:24:04;-2.63;99.99
67868;SHT31;54672;46.096;14.470;2023-12-20T01:26:30;-2.56;99.99
67868;SHT31;54672;46.096;14.470;2023-12-20T01:28:55;-2.37;99.99
67868;SHT31;54672;46.096;14.470;2023-12-20T01:31:21;-2.34;99.99
67868;SHT31;54672;46.096;14.470;2023-12-20T01:33:46;-2.23;99.99
67868;SHT31;54672;46.096;14.470;2023-12-20T01:36:12;-2.23;99.99
67868;SHT31;54672;46.096;14.470;2023-12-20T01:38:38;-2.40;99.99
67868;SHT31;54672;46.096;14.470;2023-12-20T01:41:04;-2.58;99.99
67868;SHT31;54672;46.096;14.470;2023-12-20T01:43:30;-2.70;99.99
67868;SHT31;54672;46.096;14.470;2023-12-20T01:45:56;-2.74;99.99
67868;SHT31;54672;46.096;14.470;2023-12-20T01:48:23;-2.72;99.99
67868;SHT31;54672;46.096;14.470;2023-12-20T01:50:49;-2.68;99.99
67868;SHT31;54672;46.096;14.470;2023-12-20T01:53:15;-2.71;99.99
67868;SHT31;54672;46.096;14.470;2023-12-20T01:55:41;-2.65;99.99
67868;SHT31;54672;46.096;14.470;2023-12-20T01:58:07;-2.68;99.99
67868;SHT31;54672;46.096;14.470;2023-12-20T02:00:34;-2.81;99.99
67868;SHT31;54672;46.096;14.470;2023-12-20T02:03:01;-2.75;99.99
67868;SHT31;54672;46.096;14.470;2023-12-20T02:05:27;-2.75;99.99
67868;SHT31;54672;46.096;14.470;2023-12-20T02:07:53;-2.74;99.99
67868;SHT31;54672;46.096;14.470;2023-12-20T02:10:19;-2.75;99.99
67868;SHT31;54672;46.096;14.470;2023-12-20T02:12:44;-2.71;99.99
67868;SHT31;54672;46.096;14.470;2023-12-20T02:15:10;-2.72;99.99
67868;SHT31;54672;46.096;14.470;2023-12-20T02:17:36;-2.77;99.99
67868;SHT31;54672;46.096;14.470;2023-12-20T02:20:02;-2.74;99.99
67868;SHT31;54672;46.096;14.470;2023-12-20T02:22:27;-2.61;99.99
67868;SHT31;54672;46.096;14.470;2023-12-20T02:24:53;-2.71;99.99
67868;SHT31;54672;46.096;14.470;2023-12-20T02:27:19;-2.65;99.99
67868;SHT31;54672;46.096;14.470;2023-12-20T02:29:47;-2.54;99.99
67868;SHT31;54672;46.096;14.470;2023-12-20T02:32:13;-2.61;99.99
67868;SHT31;54672;46.096;14.470;2023-12-20T02:34:38;-2.51;99.99
67868;SHT31;54672;46.096;14.470;2023-12-20T02:37:03;-2.74;99.99
67868;SHT31;54672;46.096;14.470;2023-12-20T02:39:30;-2.72;99.99
67868;SHT31;54672;46.096;14.470;2023-12-20T02:41:55;-2.81;99.99
67868;SHT31;54672;46.096;14.470;2023-12-20T02:44:21;-2.89;99.99
67868;SHT31;54672;46.096;14.470;2023-12-20T02:46:46;-2.88;99.99
67868;SHT31;54672;46.096;14.470;2023-12-20T02:49:12;-2.92;99.99
67868;SHT31;54672;46.096;14.470;2023-12-20T02:51:37;-2.99;99.99
67868;SHT31;54672;46.096;14.470;2023-12-20T02:54:06;-3.12;99.99
67868;SHT31;54672;46.096;14.470;2023-12-20T02:56:34;-3.16;99.99
67868;SHT31;54672;46.096;14.470;2023-12-20T02:59:00;-3.33;99.99
67868;SHT31;54672;46.096;14.470;2023-12-20T03:01:26;-3.32;99.99
67868;SHT31;54672;46.096;14.470;2023-12-20T03:03:51;-3.32;99.99
67868;SHT31;54672;46.096;14.470;2023-12-20T03:06:17;-3.36;99.99
67868;SHT31;54672;46.096;14.470;2023-12-20T03:08:44;-3.32;99.99
67868;SHT31;54672;46.096;14.470;2023-12-20T03:11:09;-3.23;99.99
67868;SHT31;54672;46.096;14.470;2023-12-20T03:13:34;-3.12;99.99
67868;SHT31;54672;46.096;14.470;2023-12-20T03:16:00;-3.08;99.99
67868;SHT31;54672;46.096;14.470;2023-12-20T03:18:25;-3.13;99.99
67868;SHT31;54672;46.096;14.470;2023-12-20T03:20:53;-3.05;99.99
67868;SHT31;54672;46.096;14.470;2023-12-20T03:23:18;-3.02;99.99
67868;SHT31;54672;46.096;14.470;2023-12-20T03:25:43;-2.95;99.99
67868;SHT31;54672;46.096;14.470;2023-12-20T03:28:09;-2.92;99.99
67868;SHT31;54672;46.096;14.470;2023-12-20T03:30:34;-2.87;99.99
67868;SHT31;54672;46.096;14.470;2023-12-20T03:33:00;-2.82;99.99
67868;SHT31;54672;46.096;14.470;2023-12-20T03:35:25;-2.81;99.99
67868;SHT31;54672;46.096;14.470;2023-12-20T03:37:51;-2.80;99.99
67868;SHT31;54672;46.096;14.470;2023-12-20T03:40:16;-2.77;99.99
67868;SHT31;54672;46.096;14.470;2023-12-20T03:42:41;-2.84;99.99
67868;SHT31;54672;46.096;14.470;2023-12-20T03:45:07;-2.82;99.99
67868;SHT31;54672;46.096;14.470;2023-12-20T03:47:33;-2.81;99.99
67868;SHT31;54672;46.096;14.470;2023-12-20T03:49:58;-2.92;99.99
67868;SHT31;54672;46.096;14.470;2023-12-20T03:52:24;-2.89;99.99
67868;SHT31;54672;46.096;14.470;2023-12-20T03:54:49;-2.91;99.99
67868;SHT31;54672;46.096;14.470;2023-12-20T03:57:15;-2.77;99.99
67868;SHT31;54672;46.096;14.470;2023-12-20T03:59:40;-2.75;99.99
67868;SHT31;54672;46.096;14.470;2023-12-20T04:02:06;-2.80;99.99
67868;SHT31;54672;46.096;14.470;2023-12-20T04:04:31;-2.71;99.99
67868;SHT31;54672;46.096;14.470;2023-12-20T04:06:56;-2.71;99.99
67868;SHT31;54672;46.096;14.470;2023-12-20T04:09:22;-2.75;99.99
67868;SHT31;54672;46.096;14.470;2023-12-20T04:11:47;-2.84;99.99
67868;SHT31;54672;46.096;14.470;2023-12-20T04:14:13;-2.89;99.99
67868;SHT31;54672;46.096;14.470;2023-12-20T04:16:38;-2.92;99.99
67868;SHT31;54672;46.096;14.470;2023-12-20T04:19:04;-2.93;99.99
67868;SHT31;54672;46.096;14.470;2023-12-20T04:21:30;-2.93;99.99
67868;SHT31;54672;46.096;14.470;2023-12-20T04:23:56;-2.91;99.99
67868;SHT31;54672;46.096;14.470;2023-12-20T04:26:21;-2.85;99.99
67868;SHT31;54672;46.096;14.470;2023-12-20T04:28:47;-2.80;99.99
67868;SHT31;54672;46.096;14.470;2023-12-20T04:31:12;-2.80;99.99
67868;SHT31;54672;46.096;14.470;2023-12-20T04:33:38;-2.72;99.99
67868;SHT31;54672;46.096;14.470;2023-12-20T04:36:04;-2.71;99.99
67868;SHT31;54672;46.096;14.470;2023-12-20T04:38:29;-2.70;99.99
67868;SHT31;54672;46.096;14.470;2023-12-20T04:40:55;-2.75;99.99
67868;SHT31;54672;46.096;14.470;2023-12-20T04:43:20;-2.75;99.99
67868;SHT31;54672;46.096;14.470;2023-12-20T04:45:46;-2.78;99.99
67868;SHT31;54672;46.096;14.470;2023-12-20T04:48:11;-2.75;99.99
67868;SHT31;54672;46.096;14.470;2023-12-20T04:50:37;-2.78;99.99
67868;SHT31;54672;46.096;14.470;2023-12-20T04:53:02;-2.89;99.99
67868;SHT31;54672;46.096;14.470;2023-12-20T04:55:28;-2.95;99.99
67868;SHT31;54672;46.096;14.470;2023-12-20T04:57:53;-2.93;99.99
67868;SHT31;54672;46.096;14.470;2023-12-20T05:00:20;-2.91;99.99
67868;SHT31;54672;46.096;14.470;2023-12-20T05:02:45;-2.91;99.99
67868;SHT31;54672;46.096;14.470;2023-12-20T05:05:11;-2.91;99.99
67868;SHT31;54672;46.096;14.470;2023-12-20T05:07:36;-2.84;99.99
67868;SHT31;54672;46.096;14.470;2023-12-20T05:10:02;-2.80;99.99
67868;SHT31;54672;46.096;14.470;2023-12-20T05:12:29;-2.81;99.99
67868;SHT31;54672;46.096;14.470;2023-12-20T05:14:55;-2.77;99.99
67868;SHT31;54672;46.096;14.470;2023-12-20T05:17:20;-2.74;99.99
67868;SHT31;54672;46.096;14.470;2023-12-20T05:19:46;-2.74;99.99
67868;SHT31;54672;46.096;14.470;2023-12-20T05:22:11;-2.68;99.99
67868;SHT31;54672;46.096;14.470;2023-12-20T05:24:37;-2.64;99.99
67868;SHT31;54672;46.096;14.470;2023-12-20T05:27:02;-2.60;99.99
67868;SHT31;54672;46.096;14.470;2023-12-20T05:29:28;-2.56;99.99
67868;SHT31;54672;46.096;14.470;2023-12-20T05:31:53;-2.50;99.99
67868;SHT31;54672;46.096;14.470;2023-12-20T05:34:19;-2.54;99.99
67868;SHT31;54672;46.096;14.470;2023-12-20T05:36:45;-2.49;99.99
67868;SHT31;54672;46.096;14.470;2023-12-20T05:39:10;-2.46;99.99
67868;SHT31;54672;46.096;14.470;2023-12-20T05:41:36;-2.43;99.99
67868;SHT31;54672;46.096;14.470;2023-12-20T05:44:01;-2.49;99.99
67868;SHT31;54672;46.096;14.470;2023-12-20T05:46:27;-2.84;99.99
67868;SHT31;54672;46.096;14.470;2023-12-20T05:48:52;-3.05;99.99
67868;SHT31;54672;46.096;14.470;2023-12-20T05:51:18;-3.11;99.99
67868;SHT31;54672;46.096;14.470;2023-12-20T05:53:44;-3.11;99.99
67868;SHT31;54672;46.096;14.470;2023-12-20T05:56:10;-3.17;99.99
67868;SHT31;54672;46.096;14.470;2023-12-20T05:58:36;-3.26;99.99
67868;SHT31;54672;46.096;14.470;2023-12-20T06:01:05;-3.22;99.99
67868;SHT31;54672;46.096;14.470;2023-12-20T06:03:30;-3.11;99.99
67868;SHT31;54672;46.096;14.470;2023-12-20T06:05:56;-2.96;99.99
67868;SHT31;54672;46.096;14.470;2023-12-20T06:08:22;-2.91;99.99
67868;SHT31;54672;46.096;14.470;2023-12-20T06:10:47;-2.98;99.99
67868;SHT31;54672;46.096;14.470;2023-12-20T06:13:12;-2.93;99.99
67868;SHT31;54672;46.096;14.470;2023-12-20T06:15:39;-3.13;99.99
67868;SHT31;54672;46.096;14.470;2023-12-20T06:18:05;-3.35;99.99
67868;SHT31;54672;46.096;14.470;2023-12-20T06:20:31;-3.32;99.99
67868;SHT31;54672;46.096;14.470;2023-12-20T06:22:57;-3.17;99.99
67868;SHT31;54672;46.096;14.470;2023-12-20T06:25:22;-3.20;99.99
67868;SHT31;54672;46.096;14.470;2023-12-20T06:27:48;-3.09;99.99
67868;SHT31;54672;46.096;14.470;2023-12-20T06:30:13;-3.17;99.99
67868;SHT31;54672;46.096;14.470;2023-12-20T06:32:39;-3.23;99.99
67868;SHT31;54672;46.096;14.470;2023-12-20T06:35:05;-3.43;99.99
67868;SHT31;54672;46.096;14.470;2023-12-20T06:37:30;-3.33;99.99
67868;SHT31;54672;46.096;14.470;2023-12-20T06:39:56;-3.22;99.99
67868;SHT31;54672;46.096;14.470;2023-12-20T06:42:22;-3.19;99.99
67868;SHT31;54672;46.096;14.470;2023-12-20T06:44:48;-2.98;99.99
67868;SHT31;54672;46.096;14.470;2023-12-20T06:47:13;-2.93;99.99
67868;SHT31;54672;46.096;14.470;2023-12-20T06:49:39;-3.08;99.99
67868;SHT31;54672;46.096;14.470;2023-12-20T06:52:05;-3.11;99.99
67868;SHT31;54672;46.096;14.470;2023-12-20T06:54:31;-3.09;99.99
67868;SHT31;54672;46.096;14.470;2023-12-20T06:56:56;-3.12;99.99
67868;SHT31;54672;46.096;14.470;2023-12-20T06:59:21;-2.99;99.99
67868;SHT31;54672;46.096;14.470;2023-12-20T07:01:48;-2.91;99.99
67868;SHT31;54672;46.096;14.470;2023-12-20T07:04:14;-2.80;99.99
67868;SHT31;54672;46.096;14.470;2023-12-20T07:06:39;-2.71;99.99
67868;SHT31;54672;46.096;14.470;2023-12-20T07:09:05;-2.67;99.99
67868;SHT31;54672;46.096;14.470;2023-12-20T07:11:30;-2.58;99.99
67868;SHT31;54672;46.096;14.470;2023-12-20T07:13:55;-2.65;99.99
67868;SHT31;54672;46.096;14.470;2023-12-20T07:16:21;-2.56;99.99
67868;SHT31;54672;46.096;14.470;2023-12-20T07:18:47;-2.50;99.99
67868;SHT31;54672;46.096;14.470;2023-12-20T07:21:13;-2.57;99.99
67868;SHT31;54672;46.096;14.470;2023-12-20T07:23:38;-2.54;99.99
67868;SHT31;54672;46.096;14.470;2023-12-20T07:26:04;-2.40;99.99
67868;SHT31;54672;46.096;14.470;2023-12-20T07:28:29;-2.28;99.99
67868;SHT31;54672;46.096;14.470;2023-12-20T07:30:55;-2.19;99.99
67868;SHT31;54672;46.096;14.470;2023-12-20T07:33:20;-2.03;99.99
67868;SHT31;54672;46.096;14.470;2023-12-20T07:35:45;-2.01;99.99
67868;SHT31;54672;46.096;14.470;2023-12-20T07:38:11;-1.86;99.99
67868;SHT31;54672;46.096;14.470;2023-12-20T07:40:37;-2.20;99.99
67868;SHT31;54672;46.096;14.470;2023-12-20T07:43:04;-2.20;99.99
67868;SHT31;54672;46.096;14.470;2023-12-20T07:45:29;-2.46;99.99
67868;SHT31;54672;46.096;14.470;2023-12-20T07:47:54;-2.06;99.99
67868;SHT31;54672;46.096;14.470;2023-12-20T07:50:20;-1.75;99.99
67868;SHT31;54672;46.096;14.470;2023-12-20T07:52:45;-1.60;99.99
67868;SHT31;54672;46.096;14.470;2023-12-20T07:55:11;-1.85;99.99
67868;SHT31;54672;46.096;14.470;2023-12-20T07:57:36;-1.62;99.99
67868;SHT31;54672;46.096;14.470;2023-12-20T08:00:02;-1.67;99.99
67868;SHT31;54672;46.096;14.470;2023-12-20T08:02:29;-1.64;99.99
67868;SHT31;54672;46.096;14.470;2023-12-20T08:04:54;-1.82;99.99
67868;SHT31;54672;46.096;14.470;2023-12-20T08:07:19;-1.57;99.99
67868;SHT31;54672;46.096;14.470;2023-12-20T08:09:45;-1.43;99.99
67868;SHT31;54672;46.096;14.470;2023-12-20T08:12:10;-1.46;99.99
67868;SHT31;54672;46.096;14.470;2023-12-20T08:14:36;-1.40;99.99
67868;SHT31;54672;46.096;14.470;2023-12-20T08:17:02;-1.27;99.99
67868;SHT31;54672;46.096;14.470;2023-12-20T08:19:28;-1.57;99.99
67868;SHT31;54672;46.096;14.470;2023-12-20T08:21:53;-1.79;99.99
67868;SHT31;54672;46.096;14.470;2023-12-20T08:24:18;-1.81;99.99
67868;SHT31;54672;46.096;14.470;2023-12-20T08:26:44;-1.81;99.99
67868;SHT31;54672;46.096;14.470;2023-12-20T08:29:13;-1.71;99.99
67868;SHT31;54672;46.096;14.470;2023-12-20T08:31:38;-1.48;99.99
67868;SHT31;54672;46.096;14.470;2023-12-20T08:34:04;-1.36;99.99
67868;SHT31;54672;46.096;14.470;2023-12-20T08:36:29;-1.43;99.99
67868;SHT31;54672;46.096;14.470;2023-12-20T08:38:55;-1.34;99.99
67868;SHT31;54672;46.096;14.470;2023-12-20T08:41:20;-1.21;99.99
67868;SHT31;54672;46.096;14.470;2023-12-20T08:43:46;-1.21;99.99
67868;SHT31;54672;46.096;14.470;2023-12-20T08:46:11;-1.21;99.99
67868;SHT31;54672;46.096;14.470;2023-12-20T08:48:37;-1.16;99.99
67868;SHT31;54672;46.096;14.470;2023-12-20T08:51:03;-1.43;99.99
67868;SHT31;54672;46.096;14.470;2023-12-20T08:53:29;-1.33;99.99
67868;SHT31;54672;46.096;14.470;2023-12-20T08:55:54;-1.30;99.99
67868;SHT31;54672;46.096;14.470;2023-12-20T08:58:20;-1.20;99.99
67868;SHT31;54672;46.096;14.470;2023-12-20T09:00:45;-0.95;99.99
67868;SHT31;54672;46.096;14.470;2023-12-20T09:03:11;-0.82;99.99
67868;SHT31;54672;46.096;14.470;2023-12-20T09:05:36;-0.83;99.99
67868;SHT31;54672;46.096;14.470;2023-12-20T09:08:01;-0.65;99.99
67868;SHT31;54672;46.096;14.470;2023-12-20T09:10:27;-0.52;99.99
67868;SHT31;54672;46.096;14.470;2023-12-20T09:12:53;-0.51;99.99
67868;SHT31;54672;46.096;14.470;2023-12-20T09:15:26;-0.38;99.99
67868;SHT31;54672;46.096;14.470;2023-12-20T09:17:52;-0.22;99.99
67868;SHT31;54672;46.096;14.470;2023-12-20T09:20:18;-0.21;99.79
67868;SHT31;54672;46.096;14.470;2023-12-20T09:22:44;-0.09;99.99
67868;SHT31;54672;46.096;14.470;2023-12-20T09:25:10;0.06;99.99
67868;SHT31;54672;46.096;14.470;2023-12-20T09:27:36;0.07;98.82
67868;SHT31;54672;46.096;14.470;2023-12-20T09:30:02;0.13;99.44
67868;SHT31;54672;46.096;14.470;2023-12-20T09:32:28;0.06;99.61
67868;SHT31;54672;46.096;14.470;2023-12-20T09:34:54;-0.17;99.03
67868;SHT31;54672;46.096;14.470;2023-12-20T09:37:20;-0.17;99.99
67868;SHT31;54672;46.096;14.470;2023-12-20T09:39:45;0.01;99.99
67868;SHT31;54672;46.096;14.470;2023-12-20T09:42:11;0.27;99.99
67868;SHT31;54672;46.096;14.470;2023-12-20T09:44:39;0.41;99.64
67868;SHT31;54672;46.096;14.470;2023-12-20T09:47:07;0.60;98.93
67868;SHT31;54672;46.096;14.470;2023-12-20T09:49:33;0.64;98.01
67868;SHT31;54672;46.096;14.470;2023-12-20T09:52:00;0.60;97.33
67868;SHT31;54672;46.096;14.470;2023-12-20T09:54:26;0.50;98.61
67868;SHT31;54672;46.096;14.470;2023-12-20T09:56:53;0.75;98.78
67868;SHT31;54672;46.096;14.470;2023-12-20T09:59:19;0.86;98.14
67868;SHT31;54672;46.096;14.470;2023-12-20T10:01:44;0.75;97.45
67868;SHT31;54672;46.096;14.470;2023-12-20T10:04:12;0.81;97.28
67868;SHT31;54672;46.096;14.470;2023-12-20T10:06:42;0.97;98.54
67868;SHT31;54672;46.096;14.470;2023-12-20T10:09:09;1.20;97.18
67868;SHT31;54672;46.096;14.470;2023-12-20T10:11:36;1.39;96.16
67868;SHT31;54672;46.096;14.470;2023-12-20T10:14:03;0.88;96.82
67868;SHT31;54672;46.096;14.470;2023-12-20T10:16:29;0.71;98.46
67868;SHT31;54672;46.096;14.470;2023-12-20T10:18:56;0.83;97.93
67868;SHT31;54672;46.096;14.470;2023-12-20T10:21:25;0.91;97.51
67868;SHT31;54672;46.096;14.470;2023-12-20T10:23:54;0.75;96.02
67868;SHT31;54672;46.096;14.470;2023-12-20T10:26:26;0.72;95.82
67868;SHT31;54672;46.096;14.470;2023-12-20T10:29:00;0.86;97.62
67868;SHT31;54672;46.096;14.470;2023-12-20T10:31:34;0.95;97.11
67868;SHT31;54672;46.096;14.470;2023-12-20T10:34:01;1.27;97.69
67868;SHT31;54672;46.096;14.470;2023-12-20T10:36:32;1.65;96.63
67868;SHT31;54672;46.096;14.470;2023-12-20T10:38:58;1.88;95.97
67868;SHT31;54672;46.096;14.470;2023-12-20T10:41:29;2.09;94.75
67868;SHT31;54672;46.096;14.470;2023-12-20T10:44:02;2.15;94.47
67868;SHT31;54672;46.096;14.470;2023-12-20T10:46:30;2.01;94.16
67868;SHT31;54672;46.096;14.470;2023-12-20T10:48:57;2.22;95.25
67868;SHT31;54672;46.096;14.470;2023-12-20T10:51:24;2.46;94.06
67868;SHT31;54672;46.096;14.470;2023-12-20T10:53:52;2.60;93.71
67868;SHT31;54672;46.096;14.470;2023-12-20T10:56:18;2.54;93.32
67868;SHT31;54672;46.096;14.470;2023-12-20T10:58:48;2.58;93.21
67868;SHT31;54672;46.096;14.470;2023-12-20T11:01:15;2.76;92.75
67868;SHT31;54672;46.096;14.470;2023-12-20T11:03:46;2.85;92.42
67868;SHT31;54672;46.096;14.470;2023-12-20T11:11:42;3.05;93.69
67868;SHT31;54672;46.096;14.470;2023-12-20T11:14:14;3.21;93.79
67868;SHT31;54672;46.096;14.470;2023-12-20T11:16:42;3.21;92.41
67868;SHT31;54672;46.096;14.470;2023-12-20T11:19:07;3.29;91.98
67868;SHT31;54672;46.096;14.470;2023-12-20T11:21:33;3.38;92.05
67868;SHT31;54672;46.096;14.470;2023-12-20T11:23:59;3.48;92.78
67868;SHT31;54672;46.096;14.470;2023-12-20T11:26:29;3.53;93.15
67868;SHT31;54672;46.096;14.470;2023-12-20T11:32:47;3.89;91.75
67868;SHT31;54672;46.096;14.470;2023-12-20T11:34:48;3.84;90.91
67868;SHT31;54672;46.096;14.470;2023-12-20T11:37:13;3.86;90.63
67868;SHT31;54672;46.096;14.470;2023-12-20T11:39:39;3.77;92.26
67868;SHT31;54672;46.096;14.470;2023-12-20T11:42:05;3.87;91.21
67868;SHT31;54672;46.096;14.470;2023-12-20T11:44:31;3.91;90.50
67868;SHT31;54672;46.096;14.470;2023-12-20T11:46:57;3.93;90.50
67868;SHT31;54672;46.096;14.470;2023-12-20T11:49:23;4.05;90.17
67868;SHT31;54672;46.096;14.470;2023-12-20T11:51:49;4.07;90.82
67868;SHT31;54672;46.096;14.470;2023-12-20T11:54:15;4.14;91.17
67868;SHT31;54672;46.096;14.470;2023-12-20T11:56:41;4.07;92.19
67868;SHT31;54672;46.096;14.470;2023-12-20T11:59:08;4.21;92.65
67868;SHT31;54672;46.096;14.470;2023-12-20T12:01:34;4.18;92.80
67868;SHT31;54672;46.096;14.470;2023-12-20T12:04:06;4.18;93.08
67868;SHT31;54672;46.096;14.470;2023-12-20T12:06:32;3.70;94.26
67868;SHT31;54672;46.096;14.470;2023-12-20T12:08:57;3.58;93.99
67868;SHT31;54672;46.096;14.470;2023-12-20T12:11:23;3.70;94.04
67868;SHT31;54672;46.096;14.470;2023-12-20T12:13:49;3.64;93.86
67868;SHT31;54672;46.096;14.470;2023-12-20T12:16:18;3.80;94.27
67868;SHT31;54672;46.096;14.470;2023-12-20T12:18:46;3.83;93.92
67868;SHT31;54672;46.096;14.470;2023-12-20T12:21:19;3.76;93.98
67868;SHT31;54672;46.096;14.470;2023-12-20T12:23:45;3.80;93.98
67868;SHT31;54672;46.096;14.470;2023-12-20T12:26:11;3.79;93.80
67868;SHT31;54672;46.096;14.470;2023-12-20T12:28:40;3.49;94.97
67868;SHT31;54672;46.096;14.470;2023-12-20T12:31:05;3.73;94.64
67868;SHT31;54672;46.096;14.470;2023-12-20T12:33:31;3.86;94.46
67868;SHT31;54672;46.096;14.470;2023-12-20T12:35:56;3.39;94.60
67868;SHT31;54672;46.096;14.470;2023-12-20T12:38:22;3.38;95.16
67868;SHT31;54672;46.096;14.470;2023-12-20T12:40:49;3.43;94.95
67868;SHT31;54672;46.096;14.470;2023-12-20T12:43:15;3.69;94.68
67868;SHT31;54672;46.096;14.470;2023-12-20T12:45:40;3.77;94.42
67868;SHT31;54672;46.096;14.470;2023-12-20T12:48:06;3.59;93.99
67868;SHT31;54672;46.096;14.470;2023-12-20T12:50:32;3.62;94.61
67868;SHT31;54672;46.096;14.470;2023-12-20T12:52:57;3.46;94.75
67868;SHT31;54672;46.096;14.470;2023-12-20T12:55:22;3.46;95.59
67868;SHT31;54672;46.096;14.470;2023-12-20T12:57:48;3.31;96.43
67868;SHT31;54672;46.096;14.470;2023-12-20T13:00:13;3.28;96.92
67868;SHT31;54672;46.096;14.470;2023-12-20T13:02:39;3.31;96.94
67868;SHT31;54672;46.096;14.470;2023-12-20T13:05:08;3.39;96.81
67868;SHT31;54672;46.096;14.470;2023-12-20T13:07:34;3.36;97.17
67868;SHT31;54672;46.096;14.470;2023-12-20T13:09:59;3.38;97.45
67868;SHT31;54672;46.096;14.470;2023-12-20T13:12:25;3.39;97.52
67868;SHT31;54672;46.096;14.470;2023-12-20T13:14:51;3.40;97.71
67868;SHT31;54672;46.096;14.470;2023-12-20T13:17:16;3.39;97.57
67868;SHT31;54672;46.096;14.470;2023-12-20T13:19:42;3.43;97.91
67868;SHT31;54672;46.096;14.470;2023-12-20T13:22:07;3.36;97.80
67868;SHT31;54672;46.096;14.470;2023-12-20T13:24:33;3.48;97.98
67868;SHT31;54672;46.096;14.470;2023-12-20T13:26:58;3.40;98.19
67868;SHT31;54672;46.096;14.470;2023-12-20T13:29:24;3.40;97.78
67868;SHT31;54672;46.096;14.470;2023-12-20T13:31:52;3.31;97.89
67868;SHT31;54672;46.096;14.470;2023-12-20T13:34:18;3.35;98.11
67868;SHT31;54672;46.096;14.470;2023-12-20T13:36:44;3.29;98.85
67868;SHT31;54672;46.096;14.470;2023-12-20T13:39:13;3.29;98.46
67868;SHT31;54672;46.096;14.470;2023-12-20T13:41:39;3.25;98.30
67868;SHT31;54672;46.096;14.470;2023-12-20T13:44:04;3.25;98.22
67868;SHT31;54672;46.096;14.470;2023-12-20T13:46:30;3.33;98.61
67868;SHT31;54672;46.096;14.470;2023-12-20T13:48:56;3.39;98.50
67868;SHT31;54672;46.096;14.470;2023-12-20T13:51:22;3.38;98.44
67868;SHT31;54672;46.096;14.470;2023-12-20T13:53:48;3.39;98.81
67868;SHT31;54672;46.096;14.470;2023-12-20T13:56:14;3.43;98.65
67868;SHT31;54672;46.096;14.470;2023-12-20T13:58:39;3.51;97.98
67868;SHT31;54672;46.096;14.470;2023-12-20T14:01:07;3.52;97.30
67868;SHT31;54672;46.096;14.470;2023-12-20T14:03:33;3.56;97.31
67868;SHT31;54672;46.096;14.470;2023-12-20T14:05:59;3.55;96.25
67868;SHT31;54672;46.096;14.470;2023-12-20T14:08:25;3.55;96.24
67868;SHT31;54672;46.096;14.470;2023-12-20T14:10:52;3.53;96.57
67868;SHT31;54672;46.096;14.470;2023-12-20T14:13:17;3.51;96.76
67868;SHT31;54672;46.096;14.470;2023-12-20T14:15:43;3.46;96.74
67868;SHT31;54672;46.096;14.470;2023-12-20T14:18:08;3.48;96.71
67868;SHT31;54672;46.096;14.470;2023-12-20T14:20:34;3.52;96.67
67868;SHT31;54672;46.096;14.470;2023-12-20T14:23:03;3.56;97.05
67868;SHT31;54672;46.096;14.470;2023-12-20T14:25:29;3.53;97.32
67868;SHT31;54672;46.096;14.470;2023-12-20T14:27:54;3.53;97.51
67868;SHT31;54672;46.096;14.470;2023-12-20T14:30:20;3.59;97.58
67868;SHT31;54672;46.096;14.470;2023-12-20T14:32:45;3.62;97.45
67868;SHT31;54672;46.096;14.470;2023-12-20T14:35:13;3.62;97.17
67868;SHT31;54672;46.096;14.470;2023-12-20T14:37:38;3.48;97.54
67868;SHT31;54672;46.096;14.470;2023-12-20T14:40:09;3.35;98.10
67868;SHT31;54672;46.096;14.470;2023-12-20T14:42:44;3.39;98.40
67868;SHT31;54672;46.096;14.470;2023-12-20T14:45:10;3.43;98.23
67868;SHT31;54672;46.096;14.470;2023-12-20T14:47:36;3.49;98.33
67868;SHT31;54672;46.096;14.470;2023-12-20T14:50:05;3.48;98.37
67868;SHT31;54672;46.096;14.470;2023-12-20T14:52:32;3.45;98.55
67868;SHT31;54672;46.096;14.470;2023-12-20T14:54:59;3.40;98.71
67868;SHT31;54672;46.096;14.470;2023-12-20T14:57:24;3.42;98.79
67868;SHT31;54672;46.096;14.470;2023-12-20T14:59:50;3.39;98.89
67868;SHT31;54672;46.096;14.470;2023-12-20T15:02:15;3.43;98.80
67868;SHT31;54672;46.096;14.470;2023-12-20T15:04:41;3.51;98.73
67868;SHT31;54672;46.096;14.470;2023-12-20T15:07:06;3.51;98.56
67868;SHT31;54672;46.096;14.470;2023-12-20T15:09:32;3.49;98.58
67868;SHT31;54672;46.096;14.470;2023-12-20T15:11:57;3.46;98.72
67868;SHT31;54672;46.096;14.470;2023-12-20T15:14:23;3.46;98.84
67868;SHT31;54672;46.096;14.470;2023-12-20T15:16:48;3.38;99.13
67868;SHT31;54672;46.096;14.470;2023-12-20T15:19:14;3.38;99.18
67868;SHT31;54672;46.096;14.470;2023-12-20T15:21:40;3.39;99.11
67868;SHT31;54672;46.096;14.470;2023-12-20T15:24:08;3.46;98.89